Montrose, Arkansas
Current Conditions -  °F | °C
As of 12:53 AM on Sunday 23 Nov 2014 (Local Time) from KLLQ Reporting Station
Broken Clouds Broken Clouds  
Wind Chill: 59°   Ceiling: 7000
Heat Index: 59°   Visibility: 10mi
Dew Point: 51°   Wind: 8mph
Humidity: 75%   Direction: 130°SE
Pressure: 29.83"   Gusts: NA
Location:  33.3°N, 91.49°W
Report Text: KLLQ 230653Z AUTO 13007KT 10SM FEW048 BKN070 BKN080 15/11 A2983 RMK AO2 SLP100 T01500106
Loading
Personal Weather Stations






























Interactive Weather Map New forecast layout! Learn more

10-Day Weather Forecast

Advertisements
Track Severe Weather on mobile